Time;durP1;ratioP1;P1;durP2;ratioP2;P2;SDS_P1;SDS_P2;PMS_P1;PMS_P2;Temp;Humidity;BMP_temperature;BMP_pressure;BME280_temperature;BME280_humidity;BME280_pressure;Samples;Min_cycle;Max_cycle;Signal;HPM_P1;HPM_P2
2022/12/07 00:00:39;;;;;;;1.10;1.00;;;;;;;;;;4531798;28;20637;-62
2022/12/07 00:02:49;;;;;;;1.40;0.93;;;;;;;;;;4530898;28;20127;-62
2022/12/07 00:05:00;;;;;;;0.90;0.90;;;;;;;;;;4534584;28;20037;-62
2022/12/07 00:07:10;;;;;;;1.42;1.10;;;;;;;;;;4531426;28;20040;-62
2022/12/07 00:09:20;;;;;;;0.90;0.90;;;;;;;;;;4533006;28;20602;-62
2022/12/07 00:11:31;;;;;;;0.98;0.93;;;;;;;;;;4531963;28;20587;-62
2022/12/07 00:13:42;;;;;;;1.10;1.00;;;;;;;;;;4515955;28;20037;-62
2022/12/07 00:15:52;;;;;;;1.10;1.00;;;;;;;;;;4530932;28;20037;-62
2022/12/07 00:18:02;;;;;;;0.90;0.90;;;;;;;;;;4532049;28;20064;-62
2022/12/07 00:20:13;;;;;;;1.10;1.00;;;;;;;;;;4531321;28;20025;-62
2022/12/07 00:22:23;;;;;;;0.98;0.93;;;;;;;;;;4531867;28;20470;-63
2022/12/07 00:24:33;;;;;;;0.93;0.90;;;;;;;;;;4531216;28;20037;-62
2022/12/07 00:26:45;;;;;;;1.17;1.08;;;;;;;;;;4532321;28;20757;-63
2022/12/07 00:29:00;;;;;;;1.20;1.10;;;;;;;;;;4531841;28;20028;-63
2022/12/07 00:31:11;;;;;;;1.20;1.10;;;;;;;;;;4532091;28;20596;-62
2022/12/07 00:33:22;;;;;;;1.05;0.95;;;;;;;;;;4530705;28;20640;-63
2022/12/07 00:35:32;;;;;;;1.00;1.00;;;;;;;;;;4533190;28;20041;-63
2022/12/07 00:37:42;;;;;;;1.05;1.00;;;;;;;;;;4530912;28;20060;-62
2022/12/07 00:39:52;;;;;;;1.00;0.90;;;;;;;;;;4516977;28;20509;-63
2022/12/07 00:42:03;;;;;;;1.00;0.90;;;;;;;;;;4531182;28;20580;-63
2022/12/07 00:44:13;;;;;;;0.90;0.90;;;;;;;;;;4532227;28;20037;-63
2022/12/07 00:46:24;;;;;;;1.33;1.10;;;;;;;;;;4532164;28;20036;-63
2022/12/07 00:48:35;;;;;;;1.15;1.05;;;;;;;;;;4530235;28;20048;-62
2022/12/07 00:50:45;;;;;;;1.05;1.00;;;;;;;;;;4533522;28;20037;-63
2022/12/07 00:52:55;;;;;;;1.00;1.00;;;;;;;;;;4513535;28;20053;-63
2022/12/07 00:55:06;;;;;;;0.90;0.90;;;;;;;;;;4529511;28;20044;-63
2022/12/07 00:57:16;;;;;;;0.95;0.93;;;;;;;;;;4531924;28;20333;-63
2022/12/07 00:59:26;;;;;;;1.00;0.93;;;;;;;;;;4531602;28;20041;-62
2022/12/07 01:01:37;;;;;;;0.90;0.90;;;;;;;;;;4530942;28;20037;-63
2022/12/07 01:03:47;;;;;;;0.88;0.88;;;;;;;;;;4531424;28;20069;-63
2022/12/07 01:05:57;;;;;;;1.10;1.00;;;;;;;;;;4531330;28;20041;-63
2022/12/07 01:08:08;;;;;;;1.10;1.00;;;;;;;;;;4530736;28;20037;-63
2022/12/07 01:10:18;;;;;;;0.95;0.90;;;;;;;;;;4531499;28;20025;-62
2022/12/07 01:12:29;;;;;;;0.90;0.90;;;;;;;;;;4529876;28;20041;-63
2022/12/07 01:14:41;;;;;;;1.05;1.00;;;;;;;;;;4530935;28;20029;-63
2022/12/07 01:16:51;;;;;;;1.00;0.90;;;;;;;;;;4531202;28;20128;-63
2022/12/07 01:19:04;;;;;;;0.90;0.90;;;;;;;;;;4531134;28;20044;-62
2022/12/07 01:21:20;;;;;;;0.98;0.95;;;;;;;;;;4529730;28;20041;-62
2022/12/07 01:23:31;;;;;;;0.80;0.80;;;;;;;;;;4532393;28;20670;-62
2022/12/07 01:25:41;;;;;;;1.02;1.02;;;;;;;;;;4531489;28;20040;-62
2022/12/07 01:27:52;;;;;;;1.10;1.00;;;;;;;;;;4531857;28;20473;-63
2022/12/07 01:30:03;;;;;;;1.08;0.90;;;;;;;;;;4530812;28;20049;-62
2022/12/07 01:32:14;;;;;;;1.10;1.00;;;;;;;;;;4529892;28;20075;-63
2022/12/07 01:34:24;;;;;;;1.10;1.00;;;;;;;;;;4515909;28;20088;-62
2022/12/07 01:36:35;;;;;;;1.10;1.00;;;;;;;;;;4531426;28;20040;-62
2022/12/07 01:38:47;;;;;;;1.02;0.93;;;;;;;;;;4527675;28;20152;-63
2022/12/07 01:40:58;;;;;;;1.10;1.00;;;;;;;;;;4532375;28;20041;-63
2022/12/07 01:43:18;;;;;;;1.05;0.95;;;;;;;;;;4531400;28;20037;-63
2022/12/07 01:45:39;;;;;;;1.00;0.90;;;;;;;;;;4531515;28;20025;-63
2022/12/07 01:47:54;;;;;;;0.85;0.85;;;;;;;;;;4531076;28;20592;-62
2022/12/07 01:50:04;;;;;;;0.82;0.82;;;;;;;;;;4531242;28;20037;-63
2022/12/07 01:52:21;;;;;;;1.10;1.00;;;;;;;;;;4529993;28;20041;-63
2022/12/07 01:54:32;;;;;;;1.20;1.10;;;;;;;;;;4530428;28;20951;-63
2022/12/07 01:56:47;;;;;;;1.27;1.08;;;;;;;;;;4530607;28;20048;-63
2022/12/07 01:58:58;;;;;;;0.95;0.93;;;;;;;;;;4530905;28;20568;-63
2022/12/07 02:01:08;;;;;;;0.95;0.90;;;;;;;;;;4528806;28;20046;-63
2022/12/07 02:03:25;;;;;;;1.02;1.00;;;;;;;;;;4531189;28;20036;-66
2022/12/07 02:05:36;;;;;;;1.05;0.98;;;;;;;;;;4529882;28;20635;-63
2022/12/07 02:07:47;;;;;;;0.82;0.82;;;;;;;;;;4529441;28;20840;-62
2022/12/07 02:10:11;;;;;;;0.90;0.90;;;;;;;;;;4532119;28;20037;-63
2022/12/07 02:12:23;;;;;;;0.80;0.80;;;;;;;;;;4531395;28;20048;-63
2022/12/07 02:14:34;;;;;;;0.88;0.88;;;;;;;;;;4530421;28;20044;-63
2022/12/07 02:16:53;;;;;;;1.00;0.90;;;;;;;;;;4530932;28;20576;-63
2022/12/07 02:19:04;;;;;;;0.90;0.90;;;;;;;;;;4529310;28;20741;-63
2022/12/07 02:21:20;;;;;;;0.93;0.90;;;;;;;;;;4528424;28;20065;-63
2022/12/07 02:23:39;;;;;;;0.95;0.90;;;;;;;;;;4530524;28;20584;-63
2022/12/07 02:25:55;;;;;;;1.10;1.00;;;;;;;;;;4529549;28;20624;-63
2022/12/07 02:28:06;;;;;;;0.90;0.90;;;;;;;;;;4530371;28;20569;-63
2022/12/07 02:30:18;;;;;;;0.90;0.90;;;;;;;;;;4530692;28;20045;-63
2022/12/07 02:32:37;;;;;;;0.88;0.88;;;;;;;;;;4521245;28;20044;-63
2022/12/07 02:34:54;;;;;;;0.95;0.90;;;;;;;;;;4531071;28;21417;-63
2022/12/07 02:37:12;;;;;;;1.00;0.90;;;;;;;;;;4530236;28;20025;-63
2022/12/07 02:39:26;;;;;;;0.95;0.85;;;;;;;;;;4530333;28;20038;-63
2022/12/07 02:41:42;;;;;;;1.05;1.00;;;;;;;;;;4529803;28;20056;-63
2022/12/07 02:44:00;;;;;;;0.85;0.85;;;;;;;;;;4530683;28;20040;-63
2022/12/07 02:46:14;;;;;;;0.90;0.90;;;;;;;;;;4528801;28;20120;-63
2022/12/07 02:48:24;;;;;;;0.90;0.90;;;;;;;;;;4529690;28;20509;-63
2022/12/07 02:50:35;;;;;;;0.90;0.90;;;;;;;;;;4530100;28;20044;-63
2022/12/07 02:52:45;;;;;;;0.90;0.90;;;;;;;;;;4529467;28;20033;-63
2022/12/07 02:54:55;;;;;;;1.08;1.00;;;;;;;;;;4515364;28;20530;-63
2022/12/07 02:57:14;;;;;;;1.00;0.90;;;;;;;;;;4531411;28;20469;-63
2022/12/07 02:59:32;;;;;;;1.10;1.00;;;;;;;;;;4530943;28;20546;-63
2022/12/07 03:02:06;;;;;;;0.73;0.73;;;;;;;;;;4531620;28;20057;-63
2022/12/07 03:04:37;;;;;;;0.95;0.90;;;;;;;;;;4516187;28;20140;-63
2022/12/07 03:06:52;;;;;;;1.10;1.00;;;;;;;;;;4516378;28;20049;-63
2022/12/07 03:09:02;;;;;;;0.80;0.80;;;;;;;;;;4531974;28;20032;-63
2022/12/07 03:11:21;;;;;;;1.10;1.00;;;;;;;;;;4531382;28;20047;-63
2022/12/07 03:13:50;;;;;;;0.90;0.80;;;;;;;;;;4531727;28;20648;-62
2022/12/07 03:16:00;;;;;;;0.85;0.85;;;;;;;;;;4530073;28;20044;-63
2022/12/07 03:18:12;;;;;;;0.80;0.80;;;;;;;;;;4528748;28;20043;-63
2022/12/07 03:20:25;;;;;;;0.85;0.85;;;;;;;;;;4528964;28;20168;-63
2022/12/07 03:22:36;;;;;;;0.80;0.80;;;;;;;;;;4531733;28;20512;-63
2022/12/07 03:24:52;;;;;;;1.08;0.90;;;;;;;;;;4531411;28;20795;-63
2022/12/07 03:27:04;;;;;;;0.70;0.70;;;;;;;;;;4532179;28;20049;-63
2022/12/07 03:29:24;;;;;;;0.80;0.80;;;;;;;;;;4530802;28;20124;-63
2022/12/07 03:31:42;;;;;;;0.80;0.80;;;;;;;;;;4530016;28;20066;-63
2022/12/07 03:33:58;;;;;;;0.80;0.80;;;;;;;;;;4528943;28;20041;-63
2022/12/07 03:36:12;;;;;;;1.00;0.90;;;;;;;;;;4530058;28;20124;-63
2022/12/07 03:38:28;;;;;;;1.20;1.10;;;;;;;;;;4513923;28;20140;-63
2022/12/07 03:40:49;;;;;;;1.10;0.90;;;;;;;;;;4530351;28;20075;-63
2022/12/07 03:43:01;;;;;;;0.80;0.80;;;;;;;;;;4527241;28;20811;-63
2022/12/07 03:45:12;;;;;;;0.80;0.80;;;;;;;;;;4529462;28;20049;-63
2022/12/07 03:47:34;;;;;;;0.88;0.88;;;;;;;;;;4529617;28;20038;-63
2022/12/07 03:49:49;;;;;;;0.85;0.85;;;;;;;;;;4529840;28;20640;-63
2022/12/07 03:52:05;;;;;;;0.95;0.80;;;;;;;;;;4541211;22;20292;-63
2022/12/07 03:54:39;;;;;;;0.90;0.80;;;;;;;;;;4573857;28;20024;-63
2022/12/07 03:56:50;;;;;;;0.90;0.90;;;;;;;;;;4564613;28;20055;-63
2022/12/07 03:59:00;;;;;;;0.85;0.85;;;;;;;;;;4573511;28;20356;-64
2022/12/07 04:01:11;;;;;;;0.80;0.80;;;;;;;;;;4573922;28;20044;-63
2022/12/07 04:03:21;;;;;;;0.70;0.70;;;;;;;;;;4573505;28;20051;-63
2022/12/07 04:05:31;;;;;;;0.80;0.80;;;;;;;;;;4573734;28;20028;-63
2022/12/07 04:07:42;;;;;;;0.98;0.95;;;;;;;;;;4573468;28;20098;-63
2022/12/07 04:09:54;;;;;;;0.80;0.80;;;;;;;;;;4573687;28;20032;-63
2022/12/07 04:12:05;;;;;;;0.80;0.80;;;;;;;;;;4554200;28;20056;-63
2022/12/07 04:14:18;;;;;;;0.93;0.90;;;;;;;;;;4574018;28;20059;-63
2022/12/07 04:16:28;;;;;;;0.70;0.70;;;;;;;;;;4554861;28;20048;-63
2022/12/07 04:18:38;;;;;;;0.70;0.70;;;;;;;;;;4574049;28;20036;-63
2022/12/07 04:20:49;;;;;;;0.80;0.80;;;;;;;;;;4574196;28;20044;-63
2022/12/07 04:22:59;;;;;;;0.70;0.70;;;;;;;;;;4573220;28;20094;-63
2022/12/07 04:25:09;;;;;;;0.77;0.75;;;;;;;;;;4574110;28;20098;-63
2022/12/07 04:27:20;;;;;;;0.70;0.70;;;;;;;;;;4573842;28;20058;-66
2022/12/07 04:29:30;;;;;;;0.60;0.60;;;;;;;;;;4557095;28;20040;-63
2022/12/07 04:31:41;;;;;;;0.70;0.70;;;;;;;;;;4576338;28;20096;-63
2022/12/07 04:33:51;;;;;;;0.75;0.75;;;;;;;;;;4576600;28;20514;-63
2022/12/07 04:36:01;;;;;;;0.80;0.80;;;;;;;;;;4576744;28;20036;-63
2022/12/07 04:38:12;;;;;;;0.60;0.60;;;;;;;;;;4576703;28;20039;-63
2022/12/07 04:40:22;;;;;;;0.80;0.70;;;;;;;;;;4575985;28;20079;-63
2022/12/07 04:42:32;;;;;;;0.70;0.70;;;;;;;;;;4576973;28;20690;-63
2022/12/07 04:44:43;;;;;;;0.98;0.77;;;;;;;;;;4576574;28;20118;-63
2022/12/07 04:46:53;;;;;;;0.60;0.60;;;;;;;;;;4576237;28;20036;-63
2022/12/07 04:49:04;;;;;;;0.60;0.60;;;;;;;;;;4577069;28;20024;-63
2022/12/07 04:51:19;;;;;;;1.00;0.80;;;;;;;;;;4576057;28;20044;-63
2022/12/07 04:53:29;;;;;;;0.80;0.80;;;;;;;;;;4575815;28;20084;-63
2022/12/07 04:55:40;;;;;;;0.70;0.70;;;;;;;;;;4576278;28;20047;-63
2022/12/07 04:57:50;;;;;;;0.98;0.90;;;;;;;;;;4557672;28;20044;-63
2022/12/07 05:00:00;;;;;;;0.70;0.70;;;;;;;;;;4575905;28;20086;-63
2022/12/07 05:02:10;;;;;;;0.60;0.60;;;;;;;;;;4576214;28;20044;-63
2022/12/07 05:04:21;;;;;;;0.73;0.73;;;;;;;;;;4576979;28;20033;-63
2022/12/07 05:06:31;;;;;;;0.70;0.70;;;;;;;;;;4575920;28;20040;-63
2022/12/07 05:08:42;;;;;;;0.70;0.70;;;;;;;;;;4576434;28;20041;-63
2022/12/07 05:10:53;;;;;;;0.80;0.80;;;;;;;;;;4546719;28;20654;-63
2022/12/07 05:13:03;;;;;;;0.70;0.70;;;;;;;;;;4575183;28;20055;-64
2022/12/07 05:15:14;;;;;;;0.77;0.70;;;;;;;;;;4576969;28;20046;-63
2022/12/07 05:17:24;;;;;;;0.70;0.70;;;;;;;;;;4576883;28;20447;-62
2022/12/07 05:19:34;;;;;;;0.70;0.70;;;;;;;;;;4576605;28;20048;-63
2022/12/07 05:21:45;;;;;;;0.70;0.70;;;;;;;;;;4576181;28;20075;-63
2022/12/07 05:23:55;;;;;;;0.73;0.73;;;;;;;;;;4576948;28;20174;-63
2022/12/07 05:26:05;;;;;;;0.70;0.70;;;;;;;;;;4576606;28;20043;-64
2022/12/07 05:28:15;;;;;;;0.70;0.70;;;;;;;;;;4557377;28;20072;-63
2022/12/07 05:30:26;;;;;;;0.63;0.63;;;;;;;;;;4575974;28;20032;-63
2022/12/07 05:32:36;;;;;;;0.68;0.68;;;;;;;;;;4575824;28;20404;-63
2022/12/07 05:34:47;;;;;;;0.70;0.70;;;;;;;;;;4557299;28;20580;-62
2022/12/07 05:36:57;;;;;;;0.60;0.60;;;;;;;;;;4575770;28;20144;-63
2022/12/07 05:39:07;;;;;;;0.90;0.90;;;;;;;;;;4575871;28;20484;-63
2022/12/07 05:43:49;;;;;;;0.60;0.60;;;;;;;;;;4534514;28;20668;-64
2022/12/07 05:45:59;;;;;;;0.60;0.60;;;;;;;;;;4576481;28;20028;-63
2022/12/07 05:48:09;;;;;;;0.70;0.70;;;;;;;;;;4576009;28;20115;-63
2022/12/07 05:50:20;;;;;;;0.70;0.70;;;;;;;;;;4576896;28;20040;-63
2022/12/07 05:52:44;;;;;;;0.75;0.75;;;;;;;;;;4575921;28;20601;-63
2022/12/07 05:54:54;;;;;;;0.80;0.80;;;;;;;;;;4575864;28;20705;-63
2022/12/07 05:57:04;;;;;;;0.63;0.60;;;;;;;;;;4575677;28;20040;-63
2022/12/07 05:59:25;;;;;;;0.70;0.70;;;;;;;;;;4575852;28;20044;-63
2022/12/07 06:01:35;;;;;;;0.75;0.75;;;;;;;;;;4574836;28;20712;-63
2022/12/07 06:03:46;;;;;;;0.60;0.60;;;;;;;;;;4575650;28;20212;-63
2022/12/07 06:05:56;;;;;;;0.57;0.57;;;;;;;;;;4575843;28;20055;-63
2022/12/07 06:08:06;;;;;;;0.70;0.70;;;;;;;;;;4557302;28;20048;-63
2022/12/07 06:10:17;;;;;;;0.70;0.70;;;;;;;;;;4575354;28;20044;-63
2022/12/07 06:12:33;;;;;;;0.80;0.80;;;;;;;;;;4575070;28;20024;-63
2022/12/07 06:14:43;;;;;;;0.70;0.70;;;;;;;;;;4574687;28;20040;-63
2022/12/07 06:16:54;;;;;;;0.70;0.70;;;;;;;;;;4575119;28;20387;-63
2022/12/07 06:19:04;;;;;;;0.60;0.60;;;;;;;;;;4575373;28;20040;-63
2022/12/07 06:21:14;;;;;;;0.60;0.60;;;;;;;;;;4574912;28;20055;-63
2022/12/07 06:23:25;;;;;;;0.65;0.65;;;;;;;;;;4575621;28;20480;-63
2022/12/07 06:25:35;;;;;;;0.60;0.60;;;;;;;;;;4575332;28;20704;-63
2022/12/07 06:27:45;;;;;;;0.60;0.60;;;;;;;;;;4575617;28;20094;-63
2022/12/07 06:29:56;;;;;;;0.75;0.75;;;;;;;;;;4575623;28;20028;-62
2022/12/07 06:32:06;;;;;;;0.65;0.65;;;;;;;;;;4574808;28;20032;-63
2022/12/07 06:34:18;;;;;;;0.70;0.70;;;;;;;;;;4573178;28;20036;-63
2022/12/07 06:36:29;;;;;;;0.70;0.70;;;;;;;;;;4574970;28;20559;-63
2022/12/07 06:38:39;;;;;;;0.68;0.68;;;;;;;;;;4572871;28;20056;-63
2022/12/07 06:40:49;;;;;;;0.70;0.70;;;;;;;;;;4574431;28;20051;-63
2022/12/07 06:43:00;;;;;;;0.55;0.55;;;;;;;;;;4575580;28;20098;-63
2022/12/07 06:45:10;;;;;;;0.57;0.57;;;;;;;;;;4574187;28;20032;-63
2022/12/07 06:47:20;;;;;;;0.70;0.70;;;;;;;;;;4574561;28;20032;-63
2022/12/07 06:49:30;;;;;;;0.60;0.60;;;;;;;;;;4574883;28;20042;-63
2022/12/07 06:51:41;;;;;;;0.70;0.70;;;;;;;;;;4574803;28;20499;-63
2022/12/07 06:53:52;;;;;;;0.60;0.60;;;;;;;;;;4574665;28;20039;-63
2022/12/07 06:56:03;;;;;;;0.57;0.57;;;;;;;;;;4556754;28;20120;-63
2022/12/07 06:58:13;;;;;;;0.63;0.63;;;;;;;;;;4574939;28;20110;-62
2022/12/07 07:00:23;;;;;;;0.70;0.70;;;;;;;;;;4574632;28;20046;-63
2022/12/07 07:02:34;;;;;;;0.70;0.70;;;;;;;;;;4575077;28;20048;-63
2022/12/07 07:04:44;;;;;;;0.60;0.60;;;;;;;;;;4574557;28;20159;-63
2022/12/07 07:06:54;;;;;;;0.75;0.75;;;;;;;;;;4574356;28;20040;-62
2022/12/07 07:09:04;;;;;;;0.65;0.65;;;;;;;;;;4574874;28;20349;-63
2022/12/07 07:11:15;;;;;;;0.68;0.68;;;;;;;;;;4574363;28;20455;-63
2022/12/07 07:13:26;;;;;;;0.73;0.63;;;;;;;;;;4575082;28;20487;-63
2022/12/07 07:15:37;;;;;;;0.60;0.60;;;;;;;;;;4571849;28;20826;-63
2022/12/07 07:17:47;;;;;;;0.50;0.50;;;;;;;;;;4574349;28;20043;-63
2022/12/07 07:19:58;;;;;;;0.55;0.55;;;;;;;;;;4574192;28;20395;-63
2022/12/07 07:22:08;;;;;;;0.63;0.63;;;;;;;;;;4573056;28;20040;-63
2022/12/07 07:24:18;;;;;;;0.70;0.70;;;;;;;;;;4573543;28;20028;-63
2022/12/07 07:26:29;;;;;;;0.50;0.50;;;;;;;;;;4574206;28;20559;-63
2022/12/07 07:28:40;;;;;;;0.70;0.70;;;;;;;;;;4573928;28;20111;-63
2022/12/07 07:30:51;;;;;;;0.65;0.65;;;;;;;;;;4572803;28;20094;-62
2022/12/07 07:33:01;;;;;;;0.60;0.60;;;;;;;;;;4573666;28;20071;-63
2022/12/07 07:35:13;;;;;;;0.88;0.65;;;;;;;;;;4557441;28;20110;-63
2022/12/07 07:37:24;;;;;;;0.60;0.60;;;;;;;;;;4573398;28;20063;-63
2022/12/07 07:39:34;;;;;;;0.57;0.57;;;;;;;;;;4573717;28;20031;-62
2022/12/07 07:41:44;;;;;;;0.50;0.50;;;;;;;;;;4573529;28;20147;-63
2022/12/07 07:43:58;;;;;;;0.60;0.60;;;;;;;;;;4554234;28;20828;-62
2022/12/07 07:46:08;;;;;;;0.60;0.60;;;;;;;;;;4573798;28;20039;-63
2022/12/07 07:48:18;;;;;;;0.50;0.50;;;;;;;;;;4573690;28;20470;-63
2022/12/07 07:50:28;;;;;;;0.68;0.65;;;;;;;;;;4573614;28;20071;-63
2022/12/07 07:52:39;;;;;;;0.70;0.60;;;;;;;;;;4573527;28;20115;-63
2022/12/07 07:54:49;;;;;;;0.60;0.60;;;;;;;;;;4556567;28;20044;-63
2022/12/07 07:57:00;;;;;;;0.68;0.68;;;;;;;;;;4573914;28;20392;-63
2022/12/07 07:59:10;;;;;;;0.50;0.50;;;;;;;;;;4575141;28;20040;-62
2022/12/07 08:01:20;;;;;;;0.60;0.50;;;;;;;;;;4573932;28;20385;-63
2022/12/07 08:03:31;;;;;;;0.65;0.65;;;;;;;;;;4572987;27;20086;-63
2022/12/07 08:05:41;;;;;;;0.70;0.50;;;;;;;;;;4575823;28;20036;-63
2022/12/07 08:07:51;;;;;;;0.50;0.50;;;;;;;;;;4576491;28;20040;-63
2022/12/07 08:10:02;;;;;;;0.63;0.60;;;;;;;;;;4576031;28;20070;-63
2022/12/07 08:12:12;;;;;;;0.47;0.47;;;;;;;;;;4576037;28;20039;-63
2022/12/07 08:14:23;;;;;;;0.70;0.60;;;;;;;;;;4577259;28;20044;-63
2022/12/07 08:16:34;;;;;;;0.50;0.50;;;;;;;;;;4577162;28;20771;-63
2022/12/07 08:18:44;;;;;;;0.60;0.60;;;;;;;;;;4576576;28;20111;-63
2022/12/07 08:21:00;;;;;;;0.60;0.60;;;;;;;;;;4576204;28;20044;-63
2022/12/07 08:23:11;;;;;;;0.60;0.60;;;;;;;;;;4576017;28;20036;-63
2022/12/07 08:25:22;;;;;;;0.70;0.52;;;;;;;;;;4557151;28;20048;-63
2022/12/07 08:27:32;;;;;;;0.60;0.60;;;;;;;;;;4576168;28;20043;-63
2022/12/07 08:29:42;;;;;;;0.60;0.60;;;;;;;;;;4575907;28;20020;-63
2022/12/07 08:31:53;;;;;;;0.60;0.60;;;;;;;;;;4575851;28;20029;-63
2022/12/07 08:34:03;;;;;;;0.40;0.40;;;;;;;;;;4576903;28;20040;-63
2022/12/07 08:36:13;;;;;;;0.60;0.60;;;;;;;;;;4575962;28;20036;-63
2022/12/07 08:38:24;;;;;;;0.70;0.60;;;;;;;;;;4557347;28;20040;-63
2022/12/07 08:40:35;;;;;;;0.50;0.50;;;;;;;;;;4576701;28;20039;-63
2022/12/07 08:42:49;;;;;;;0.60;0.60;;;;;;;;;;4575599;28;20844;-63
2022/12/07 08:44:59;;;;;;;0.60;0.60;;;;;;;;;;4576180;28;20020;-63
2022/12/07 08:47:10;;;;;;;0.50;0.50;;;;;;;;;;4557424;28;20161;-62
2022/12/07 08:49:26;;;;;;;0.55;0.55;;;;;;;;;;4575817;28;20785;-63
2022/12/07 08:51:37;;;;;;;0.60;0.60;;;;;;;;;;4574272;28;20043;-63
2022/12/07 08:53:48;;;;;;;0.70;0.70;;;;;;;;;;4575841;28;20035;-63
2022/12/07 08:55:58;;;;;;;0.50;0.50;;;;;;;;;;4576501;28;20106;-63
2022/12/07 08:58:08;;;;;;;0.50;0.50;;;;;;;;;;4554378;28;20132;-63
2022/12/07 09:00:19;;;;;;;0.60;0.60;;;;;;;;;;4576294;28;20028;-63
2022/12/07 09:02:30;;;;;;;0.57;0.57;;;;;;;;;;4575396;28;20036;-63
2022/12/07 09:04:40;;;;;;;0.60;0.60;;;;;;;;;;4575888;28;20082;-63
2022/12/07 09:06:50;;;;;;;0.50;0.50;;;;;;;;;;4575367;28;20094;-62
2022/12/07 09:09:01;;;;;;;0.50;0.50;;;;;;;;;;4575996;28;20028;-63
2022/12/07 09:11:11;;;;;;;0.50;0.50;;;;;;;;;;4575412;28;20040;-63
2022/12/07 09:13:22;;;;;;;0.50;0.50;;;;;;;;;;4576405;28;20568;-63
2022/12/07 09:15:32;;;;;;;0.60;0.60;;;;;;;;;;4575309;27;20373;-63
2022/12/07 09:17:43;;;;;;;0.60;0.60;;;;;;;;;;4575890;28;20105;-63
2022/12/07 09:19:53;;;;;;;0.50;0.50;;;;;;;;;;4576446;28;20047;-63
2022/12/07 09:22:04;;;;;;;0.40;0.40;;;;;;;;;;4576232;28;20079;-63
2022/12/07 09:24:15;;;;;;;0.43;0.43;;;;;;;;;;4574782;28;20037;-63
2022/12/07 09:26:25;;;;;;;0.60;0.60;;;;;;;;;;4576201;28;20036;-63
2022/12/07 09:28:36;;;;;;;0.50;0.50;;;;;;;;;;4576019;28;20226;-63
2022/12/07 09:30:47;;;;;;;0.50;0.50;;;;;;;;;;4576104;28;20028;-63
2022/12/07 09:32:57;;;;;;;0.50;0.50;;;;;;;;;;4575502;28;20032;-63
2022/12/07 09:35:08;;;;;;;0.65;0.60;;;;;;;;;;4556646;28;20542;-63
2022/12/07 09:37:19;;;;;;;0.50;0.50;;;;;;;;;;4555275;28;20035;-64
2022/12/07 09:39:29;;;;;;;0.50;0.50;;;;;;;;;;4575794;28;20097;-63
2022/12/07 09:41:40;;;;;;;0.55;0.55;;;;;;;;;;4575585;28;20090;-63
2022/12/07 09:43:51;;;;;;;0.55;0.55;;;;;;;;;;4549305;28;20041;-63
2022/12/07 09:46:03;;;;;;;0.50;0.50;;;;;;;;;;4575991;28;20044;-63
2022/12/07 09:48:36;;;;;;;0.85;0.50;;;;;;;;;;4575661;28;20113;-63
2022/12/07 09:50:48;;;;;;;0.52;0.52;;;;;;;;;;4575195;28;20044;-63
2022/12/07 09:53:14;;;;;;;0.50;0.50;;;;;;;;;;4573742;28;20028;-63
2022/12/07 09:55:29;;;;;;;0.50;0.50;;;;;;;;;;4575122;28;20567;-63
2022/12/07 09:57:39;;;;;;;0.50;0.50;;;;;;;;;;4574950;28;20036;-63
2022/12/07 09:59:49;;;;;;;0.73;0.50;;;;;;;;;;4555211;28;20040;-63
2022/12/07 10:02:17;;;;;;;0.50;0.50;;;;;;;;;;4574633;28;20067;-62
2022/12/07 10:04:29;;;;;;;0.60;0.60;;;;;;;;;;4575295;28;20032;-63
2022/12/07 10:06:39;;;;;;;0.75;0.50;;;;;;;;;;4575567;28;20119;-63
2022/12/07 10:08:50;;;;;;;0.50;0.50;;;;;;;;;;4575219;28;20479;-63
2022/12/07 10:11:03;;;;;;;0.50;0.50;;;;;;;;;;4575736;28;20126;-63
2022/12/07 10:13:15;;;;;;;0.50;0.50;;;;;;;;;;4575469;28;20546;-62
2022/12/07 10:15:40;;;;;;;0.43;0.43;;;;;;;;;;4575838;28;20052;-63
2022/12/07 10:17:51;;;;;;;0.50;0.50;;;;;;;;;;4575124;28;20028;-63
2022/12/07 10:20:11;;;;;;;0.40;0.40;;;;;;;;;;4575790;28;20040;-63
2022/12/07 10:22:21;;;;;;;0.50;0.50;;;;;;;;;;4557586;28;20192;-63
2022/12/07 10:24:32;;;;;;;0.47;0.47;;;;;;;;;;4573498;28;20048;-63
2022/12/07 10:26:46;;;;;;;0.60;0.50;;;;;;;;;;4574276;28;20044;-64
2022/12/07 10:28:59;;;;;;;0.50;0.50;;;;;;;;;;4574064;28;20587;-63
2022/12/07 10:31:17;;;;;;;0.50;0.50;;;;;;;;;;4574890;28;20512;-63
2022/12/07 10:33:30;;;;;;;0.47;0.47;;;;;;;;;;4574584;28;20036;-63
2022/12/07 10:35:43;;;;;;;0.45;0.40;;;;;;;;;;4574230;28;20094;-63
2022/12/07 10:37:54;;;;;;;0.50;0.50;;;;;;;;;;4555653;28;20037;-63
2022/12/07 10:40:22;;;;;;;0.45;0.45;;;;;;;;;;4574716;28;20054;-63
2022/12/07 10:42:33;;;;;;;0.40;0.40;;;;;;;;;;4574581;28;20269;-63
2022/12/07 10:44:43;;;;;;;0.50;0.50;;;;;;;;;;4574612;28;20106;-63
2022/12/07 10:47:00;;;;;;;0.47;0.47;;;;;;;;;;4574880;28;20028;-63
2022/12/07 10:49:30;;;;;;;0.40;0.40;;;;;;;;;;4575373;28;20748;-63
2022/12/07 10:51:40;;;;;;;0.50;0.50;;;;;;;;;;4543815;28;20028;-63
2022/12/07 10:53:59;;;;;;;0.52;0.52;;;;;;;;;;4558085;28;20507;-63
2022/12/07 10:56:45;;;;;;;0.43;0.43;;;;;;;;;;4556613;28;20099;-63
2022/12/07 10:58:58;;;;;;;0.50;0.50;;;;;;;;;;4463667;28;20038;-63
2022/12/07 11:01:08;;;;;;;1.48;1.20;;;;;;;;;;4524794;28;20143;-63
2022/12/07 11:03:28;;;;;;;1.45;1.35;;;;;;;;;;4557101;28;20104;-63
2022/12/07 11:05:45;;;;;;;1.40;1.30;;;;;;;;;;4527610;28;20045;-63
2022/12/07 11:07:55;;;;;;;1.67;1.50;;;;;;;;;;4556381;28;20025;-63
2022/12/07 11:10:13;;;;;;;1.73;1.33;;;;;;;;;;4558063;28;20065;-63
2022/12/07 11:12:37;;;;;;;1.95;1.50;;;;;;;;;;4556392;28;20051;-63
2022/12/07 11:14:51;;;;;;;2.10;1.48;;;;;;;;;;4555823;28;20045;-63
2022/12/07 11:17:11;;;;;;;2.50;1.50;;;;;;;;;;4555699;28;20040;-63
2022/12/07 11:19:28;;;;;;;1.73;1.50;;;;;;;;;;4556348;28;20613;-63
2022/12/07 11:21:44;;;;;;;1.98;1.30;;;;;;;;;;4526912;28;20632;-63
2022/12/07 11:24:03;;;;;;;1.75;1.38;;;;;;;;;;4556501;28;20111;-63
2022/12/07 11:26:33;;;;;;;1.63;1.30;;;;;;;;;;4558213;28;20587;-63
2022/12/07 11:28:59;;;;;;;2.05;1.20;;;;;;;;;;4558058;28;20041;-63
2022/12/07 11:31:13;;;;;;;1.52;1.25;;;;;;;;;;4542691;28;20041;-63
2022/12/07 11:33:34;;;;;;;1.20;1.05;;;;;;;;;;4555623;28;20060;-63
2022/12/07 11:35:51;;;;;;;1.60;1.10;;;;;;;;;;4556963;28;20025;-62
2022/12/07 11:38:02;;;;;;;;;;;;;;;;;;4555208;28;20506;-63
2022/12/07 11:40:27;;;;;;;1.50;1.10;;;;;;;;;;4559906;28;19915;-63
2022/12/07 11:42:41;;;;;;;2.00;1.25;;;;;;;;;;4559425;28;20251;-63
2022/12/07 11:44:54;;;;;;;1.60;1.08;;;;;;;;;;4558541;28;21291;-64
2022/12/07 11:47:11;;;;;;;1.23;0.93;;;;;;;;;;4541010;28;20123;-63
2022/12/07 11:49:37;;;;;;;1.30;0.90;;;;;;;;;;4558173;28;20860;-63
2022/12/07 11:51:50;;;;;;;1.92;1.20;;;;;;;;;;4565461;28;20040;-63
2022/12/07 11:54:19;;;;;;;1.35;1.00;;;;;;;;;;4576571;28;20560;-63
2022/12/07 11:56:30;;;;;;;1.35;0.93;;;;;;;;;;4575774;28;20040;-63
2022/12/07 11:58:40;;;;;;;2.03;1.00;;;;;;;;;;4559562;28;20036;-63
2022/12/07 12:00:53;;;;;;;0.82;0.80;;;;;;;;;;4576577;28;20055;-63
2022/12/07 12:03:08;;;;;;;1.17;0.77;;;;;;;;;;4576163;28;20044;-63
2022/12/07 12:05:22;;;;;;;1.35;0.80;;;;;;;;;;4576302;28;20040;-63
2022/12/07 12:07:33;;;;;;;1.92;1.13;;;;;;;;;;4576263;28;20821;-63
2022/12/07 12:09:50;;;;;;;1.65;0.77;;;;;;;;;;4577236;28;20086;-63
2022/12/07 12:12:20;;;;;;;1.55;0.70;;;;;;;;;;4576526;28;20476;-63
2022/12/07 12:14:42;;;;;;;1.85;0.93;;;;;;;;;;4577117;28;20048;-63
2022/12/07 12:17:08;;;;;;;1.00;0.90;;;;;;;;;;4577158;28;20079;-63
2022/12/07 12:19:40;;;;;;;1.10;0.80;;;;;;;;;;4577220;28;20931;-63
2022/12/07 12:21:54;;;;;;;2.08;1.20;;;;;;;;;;4575890;28;20090;-63
2022/12/07 12:24:14;;;;;;;1.30;0.85;;;;;;;;;;4553459;28;20594;-63
2022/12/07 12:26:27;;;;;;;1.33;1.00;;;;;;;;;;4575565;28;20040;-63
2022/12/07 12:28:40;;;;;;;1.00;0.90;;;;;;;;;;4577211;28;20063;-63
2022/12/07 12:31:07;;;;;;;1.98;1.10;;;;;;;;;;4576278;28;20043;-63
2022/12/07 12:33:18;;;;;;;;;;;;;;;;;;4576671;28;20028;-63
2022/12/07 12:35:28;;;;;;;1.07;0.90;;;;;;;;;;4575225;28;20419;-63
2022/12/07 12:37:39;;;;;;;1.27;0.70;;;;;;;;;;4576566;28;20645;-65
2022/12/07 12:40:09;;;;;;;1.10;0.90;;;;;;;;;;4576873;28;20032;-63
2022/12/07 12:42:19;;;;;;;1.02;0.77;;;;;;;;;;4576676;28;20067;-63
2022/12/07 12:44:29;;;;;;;1.30;0.90;;;;;;;;;;4576596;28;20043;-63
2022/12/07 12:46:48;;;;;;;1.38;0.90;;;;;;;;;;4577095;28;20503;-63
2022/12/07 12:49:30;;;;;;;2.22;1.30;;;;;;;;;;4558183;28;20080;-62
2022/12/07 12:51:42;;;;;;;1.95;0.98;;;;;;;;;;4535138;28;20048;-63
2022/12/07 12:53:52;;;;;;;2.05;0.90;;;;;;;;;;4576674;28;20154;-63
2022/12/07 12:56:08;;;;;;;1.33;1.00;;;;;;;;;;4576043;28;20075;-63
2022/12/07 12:58:18;;;;;;;1.52;1.20;;;;;;;;;;4575469;28;20032;-62
2022/12/07 13:00:30;;;;;;;1.30;1.10;;;;;;;;;;4575179;28;20490;-63
2022/12/07 13:02:54;;;;;;;2.15;1.15;;;;;;;;;;4575328;28;20044;-63
2022/12/07 13:05:07;;;;;;;2.03;1.20;;;;;;;;;;4576538;28;20036;-62
2022/12/07 13:07:37;;;;;;;1.98;1.08;;;;;;;;;;4575750;28;21092;-63
2022/12/07 13:09:47;;;;;;;1.48;0.93;;;;;;;;;;4575810;28;20630;-63
2022/12/07 13:12:12;;;;;;;1.10;0.93;;;;;;;;;;4575575;28;20024;-63
2022/12/07 13:14:40;;;;;;;1.45;1.05;;;;;;;;;;4575527;28;20040;-63
2022/12/07 13:16:50;;;;;;;2.28;1.00;;;;;;;;;;4575799;28;20035;-63
2022/12/07 13:19:00;;;;;;;1.33;1.00;;;;;;;;;;4575324;28;20043;-63
2022/12/07 13:21:10;;;;;;;1.80;0.93;;;;;;;;;;4574376;28;20090;-63